sensor_id;sensor_type;location;lat;lon;timestamp;P1;durP1;ratioP1;P2;durP2;ratioP2
72573;SDS011;60603;52.548;13.420;2023-03-21T00:01:35;11.60;;;6.18;;
72573;SDS011;60603;52.548;13.420;2023-03-21T00:04:01;12.05;;;5.07;;
72573;SDS011;60603;52.548;13.420;2023-03-21T00:06:27;10.65;;;5.53;;
72573;SDS011;60603;52.548;13.420;2023-03-21T00:08:53;11.50;;;5.88;;
72573;SDS011;60603;52.548;13.420;2023-03-21T00:11:18;11.93;;;6.00;;
72573;SDS011;60603;52.548;13.420;2023-03-21T00:13:45;9.82;;;5.70;;
72573;SDS011;60603;52.548;13.420;2023-03-21T00:16:11;10.77;;;5.40;;
72573;SDS011;60603;52.548;13.420;2023-03-21T00:18:40;11.20;;;5.18;;
72573;SDS011;60603;52.548;13.420;2023-03-21T00:21:11;8.60;;;5.40;;
72573;SDS011;60603;52.548;13.420;2023-03-21T00:23:40;10.23;;;5.35;;
72573;SDS011;60603;52.548;13.420;2023-03-21T00:26:05;9.68;;;5.30;;
72573;SDS011;60603;52.548;13.420;2023-03-21T00:28:38;11.05;;;5.68;;
72573;SDS011;60603;52.548;13.420;2023-03-21T00:31:05;10.70;;;5.63;;
72573;SDS011;60603;52.548;13.420;2023-03-21T00:33:31;12.52;;;5.10;;
72573;SDS011;60603;52.548;13.420;2023-03-21T00:35:58;9.85;;;5.30;;
72573;SDS011;60603;52.548;13.420;2023-03-21T00:38:24;14.77;;;6.38;;
72573;SDS011;60603;52.548;13.420;2023-03-21T00:40:50;12.18;;;5.35;;
72573;SDS011;60603;52.548;13.420;2023-03-21T00:43:16;9.82;;;5.72;;
72573;SDS011;60603;52.548;13.420;2023-03-21T00:45:44;8.77;;;5.43;;
72573;SDS011;60603;52.548;13.420;2023-03-21T00:48:11;10.38;;;5.93;;
72573;SDS011;60603;52.548;13.420;2023-03-21T00:50:37;8.60;;;5.20;;
72573;SDS011;60603;52.548;13.420;2023-03-21T00:53:04;10.15;;;5.20;;
72573;SDS011;60603;52.548;13.420;2023-03-21T00:55:30;10.88;;;5.45;;
72573;SDS011;60603;52.548;13.420;2023-03-21T00:57:56;11.82;;;6.10;;
72573;SDS011;60603;52.548;13.420;2023-03-21T01:00:21;10.75;;;5.55;;
72573;SDS011;60603;52.548;13.420;2023-03-21T01:02:47;11.70;;;6.22;;
72573;SDS011;60603;52.548;13.420;2023-03-21T01:05:26;12.85;;;6.53;;
72573;SDS011;60603;52.548;13.420;2023-03-21T01:08:33;12.55;;;6.45;;
72573;SDS011;60603;52.548;13.420;2023-03-21T01:11:02;12.05;;;6.60;;
72573;SDS011;60603;52.548;13.420;2023-03-21T01:13:29;13.35;;;6.57;;
72573;SDS011;60603;52.548;13.420;2023-03-21T01:15:55;13.65;;;6.80;;
72573;SDS011;60603;52.548;13.420;2023-03-21T01:18:23;15.35;;;6.97;;
72573;SDS011;60603;52.548;13.420;2023-03-21T01:20:51;12.10;;;7.38;;
72573;SDS011;60603;52.548;13.420;2023-03-21T01:23:18;19.73;;;7.75;;
72573;SDS011;60603;52.548;13.420;2023-03-21T01:25:44;13.23;;;7.13;;
72573;SDS011;60603;52.548;13.420;2023-03-21T01:28:12;14.10;;;7.57;;
72573;SDS011;60603;52.548;13.420;2023-03-21T01:30:38;14.18;;;8.50;;
72573;SDS011;60603;52.548;13.420;2023-03-21T01:33:04;17.08;;;9.55;;
72573;SDS011;60603;52.548;13.420;2023-03-21T01:35:30;16.38;;;9.20;;
72573;SDS011;60603;52.548;13.420;2023-03-21T01:37:56;22.75;;;10.27;;
72573;SDS011;60603;52.548;13.420;2023-03-21T01:40:23;17.42;;;9.55;;
72573;SDS011;60603;52.548;13.420;2023-03-21T01:42:51;17.73;;;10.27;;
72573;SDS011;60603;52.548;13.420;2023-03-21T01:48:20;15.48;;;8.43;;
72573;SDS011;60603;52.548;13.420;2023-03-21T01:50:46;18.30;;;9.43;;
72573;SDS011;60603;52.548;13.420;2023-03-21T01:53:12;17.58;;;9.90;;
72573;SDS011;60603;52.548;13.420;2023-03-21T01:55:38;16.08;;;9.70;;
72573;SDS011;60603;52.548;13.420;2023-03-21T01:58:05;19.65;;;10.52;;
72573;SDS011;60603;52.548;13.420;2023-03-21T02:00:33;17.50;;;10.13;;
72573;SDS011;60603;52.548;13.420;2023-03-21T02:03:02;20.02;;;9.98;;
72573;SDS011;60603;52.548;13.420;2023-03-21T02:08:04;20.98;;;11.88;;
72573;SDS011;60603;52.548;13.420;2023-03-21T02:10:30;21.88;;;12.35;;
72573;SDS011;60603;52.548;13.420;2023-03-21T02:12:57;22.70;;;13.15;;
72573;SDS011;60603;52.548;13.420;2023-03-21T02:15:32;26.08;;;13.02;;
72573;SDS011;60603;52.548;13.420;2023-03-21T02:18:03;20.67;;;12.05;;
72573;SDS011;60603;52.548;13.420;2023-03-21T02:42:15;28.35;;;14.75;;
72573;SDS011;60603;52.548;13.420;2023-03-21T02:47:33;32.97;;;17.20;;
72573;SDS011;60603;52.548;13.420;2023-03-21T02:50:05;29.05;;;16.02;;
72573;SDS011;60603;52.548;13.420;2023-03-21T02:52:47;32.53;;;16.63;;
72573;SDS011;60603;52.548;13.420;2023-03-21T02:55:24;32.08;;;17.25;;
72573;SDS011;60603;52.548;13.420;2023-03-21T02:57:51;30.80;;;17.08;;
72573;SDS011;60603;52.548;13.420;2023-03-21T03:00:19;31.38;;;17.25;;
72573;SDS011;60603;52.548;13.420;2023-03-21T03:02:48;33.72;;;17.65;;
72573;SDS011;60603;52.548;13.420;2023-03-21T03:05:16;33.95;;;17.80;;
72573;SDS011;60603;52.548;13.420;2023-03-21T03:10:56;31.10;;;16.25;;
72573;SDS011;60603;52.548;13.420;2023-03-21T03:18:47;28.85;;;14.95;;
72573;SDS011;60603;52.548;13.420;2023-03-21T03:21:18;29.02;;;15.77;;
72573;SDS011;60603;52.548;13.420;2023-03-21T03:24:21;31.75;;;16.63;;
72573;SDS011;60603;52.548;13.420;2023-03-21T03:26:50;32.50;;;17.35;;
72573;SDS011;60603;52.548;13.420;2023-03-21T03:29:20;31.90;;;15.63;;
72573;SDS011;60603;52.548;13.420;2023-03-21T03:31:52;33.10;;;16.80;;
72573;SDS011;60603;52.548;13.420;2023-03-21T03:34:24;32.60;;;16.75;;
72573;SDS011;60603;52.548;13.420;2023-03-21T03:36:56;34.67;;;16.98;;
72573;SDS011;60603;52.548;13.420;2023-03-21T03:39:29;32.63;;;16.10;;
72573;SDS011;60603;52.548;13.420;2023-03-21T03:42:00;32.95;;;17.73;;
72573;SDS011;60603;52.548;13.420;2023-03-21T03:44:27;27.70;;;15.25;;
72573;SDS011;60603;52.548;13.420;2023-03-21T03:46:56;31.77;;;15.35;;
72573;SDS011;60603;52.548;13.420;2023-03-21T03:49:25;30.13;;;15.40;;
72573;SDS011;60603;52.548;13.420;2023-03-21T03:52:06;32.25;;;16.77;;
72573;SDS011;60603;52.548;13.420;2023-03-21T03:54:42;33.55;;;16.55;;
72573;SDS011;60603;52.548;13.420;2023-03-21T03:57:09;32.50;;;16.90;;
72573;SDS011;60603;52.548;13.420;2023-03-21T03:59:38;34.63;;;16.23;;
72573;SDS011;60603;52.548;13.420;2023-03-21T04:02:05;28.88;;;16.42;;
72573;SDS011;60603;52.548;13.420;2023-03-21T04:04:30;32.08;;;16.15;;
72573;SDS011;60603;52.548;13.420;2023-03-21T04:06:56;31.50;;;16.85;;
72573;SDS011;60603;52.548;13.420;2023-03-21T04:09:22;33.78;;;17.35;;
72573;SDS011;60603;52.548;13.420;2023-03-21T04:11:49;37.20;;;18.30;;
72573;SDS011;60603;52.548;13.420;2023-03-21T04:14:15;35.72;;;17.35;;
72573;SDS011;60603;52.548;13.420;2023-03-21T04:16:41;36.67;;;17.52;;
72573;SDS011;60603;52.548;13.420;2023-03-21T04:19:07;36.80;;;18.42;;
72573;SDS011;60603;52.548;13.420;2023-03-21T04:21:33;32.53;;;17.65;;
72573;SDS011;60603;52.548;13.420;2023-03-21T04:23:58;31.73;;;17.30;;
72573;SDS011;60603;52.548;13.420;2023-03-21T04:26:24;33.92;;;17.42;;
72573;SDS011;60603;52.548;13.420;2023-03-21T04:28:55;33.88;;;17.15;;
72573;SDS011;60603;52.548;13.420;2023-03-21T04:31:21;33.67;;;17.75;;
72573;SDS011;60603;52.548;13.420;2023-03-21T04:33:52;35.00;;;16.88;;
72573;SDS011;60603;52.548;13.420;2023-03-21T04:36:20;34.65;;;17.55;;
72573;SDS011;60603;52.548;13.420;2023-03-21T04:41:16;30.95;;;15.88;;
72573;SDS011;60603;52.548;13.420;2023-03-21T04:43:43;32.53;;;16.55;;
72573;SDS011;60603;52.548;13.420;2023-03-21T04:46:09;29.30;;;15.57;;
72573;SDS011;60603;52.548;13.420;2023-03-21T04:48:35;36.22;;;16.60;;
72573;SDS011;60603;52.548;13.420;2023-03-21T04:51:02;31.48;;;15.98;;
72573;SDS011;60603;52.548;13.420;2023-03-21T04:53:27;30.55;;;15.55;;
72573;SDS011;60603;52.548;13.420;2023-03-21T04:55:53;28.33;;;14.50;;
72573;SDS011;60603;52.548;13.420;2023-03-21T04:58:19;26.95;;;13.52;;
72573;SDS011;60603;52.548;13.420;2023-03-21T05:00:45;36.50;;;16.88;;
72573;SDS011;60603;52.548;13.420;2023-03-21T05:03:12;32.85;;;15.85;;
72573;SDS011;60603;52.548;13.420;2023-03-21T05:05:45;33.42;;;15.73;;
72573;SDS011;60603;52.548;13.420;2023-03-21T05:08:11;33.15;;;16.25;;
72573;SDS011;60603;52.548;13.420;2023-03-21T05:10:38;37.88;;;16.30;;
72573;SDS011;60603;52.548;13.420;2023-03-21T05:13:04;34.92;;;16.95;;
72573;SDS011;60603;52.548;13.420;2023-03-21T05:15:30;35.05;;;16.05;;
72573;SDS011;60603;52.548;13.420;2023-03-21T05:17:55;32.65;;;16.88;;
72573;SDS011;60603;52.548;13.420;2023-03-21T05:20:23;43.13;;;17.77;;
72573;SDS011;60603;52.548;13.420;2023-03-21T05:22:49;39.03;;;17.27;;
72573;SDS011;60603;52.548;13.420;2023-03-21T05:25:16;34.10;;;16.77;;
72573;SDS011;60603;52.548;13.420;2023-03-21T05:27:45;34.33;;;14.90;;
72573;SDS011;60603;52.548;13.420;2023-03-21T05:30:18;33.05;;;16.00;;
72573;SDS011;60603;52.548;13.420;2023-03-21T05:32:45;30.13;;;16.27;;
72573;SDS011;60603;52.548;13.420;2023-03-21T05:35:11;29.58;;;15.65;;
72573;SDS011;60603;52.548;13.420;2023-03-21T05:37:37;32.95;;;15.75;;
72573;SDS011;60603;52.548;13.420;2023-03-21T05:40:04;32.47;;;15.20;;
72573;SDS011;60603;52.548;13.420;2023-03-21T05:42:31;31.80;;;15.98;;
72573;SDS011;60603;52.548;13.420;2023-03-21T05:44:57;38.38;;;15.60;;
72573;SDS011;60603;52.548;13.420;2023-03-21T05:47:23;36.28;;;16.40;;
72573;SDS011;60603;52.548;13.420;2023-03-21T05:49:49;33.45;;;15.77;;
72573;SDS011;60603;52.548;13.420;2023-03-21T05:52:15;33.25;;;15.73;;
72573;SDS011;60603;52.548;13.420;2023-03-21T05:54:41;37.05;;;16.85;;
72573;SDS011;60603;52.548;13.420;2023-03-21T05:57:07;30.88;;;15.40;;
72573;SDS011;60603;52.548;13.420;2023-03-21T05:59:33;28.35;;;14.25;;
72573;SDS011;60603;52.548;13.420;2023-03-21T06:01:58;36.28;;;16.17;;
72573;SDS011;60603;52.548;13.420;2023-03-21T06:04:25;31.92;;;14.77;;
72573;SDS011;60603;52.548;13.420;2023-03-21T06:06:51;31.75;;;15.27;;
72573;SDS011;60603;52.548;13.420;2023-03-21T06:09:18;33.63;;;15.50;;
72573;SDS011;60603;52.548;13.420;2023-03-21T06:11:46;29.80;;;14.80;;
72573;SDS011;60603;52.548;13.420;2023-03-21T06:14:14;34.33;;;15.98;;
72573;SDS011;60603;52.548;13.420;2023-03-21T06:16:40;32.47;;;14.88;;
72573;SDS011;60603;52.548;13.420;2023-03-21T06:19:06;33.63;;;15.80;;
72573;SDS011;60603;52.548;13.420;2023-03-21T06:21:32;31.67;;;15.95;;
72573;SDS011;60603;52.548;13.420;2023-03-21T06:23:58;33.10;;;16.00;;
72573;SDS011;60603;52.548;13.420;2023-03-21T06:26:23;30.98;;;15.70;;
72573;SDS011;60603;52.548;13.420;2023-03-21T06:28:50;30.98;;;15.20;;
72573;SDS011;60603;52.548;13.420;2023-03-21T06:31:16;34.80;;;15.05;;
72573;SDS011;60603;52.548;13.420;2023-03-21T06:33:42;32.05;;;15.18;;
72573;SDS011;60603;52.548;13.420;2023-03-21T06:36:07;31.08;;;14.88;;
72573;SDS011;60603;52.548;13.420;2023-03-21T06:38:33;32.17;;;15.30;;
72573;SDS011;60603;52.548;13.420;2023-03-21T06:41:05;31.30;;;14.70;;
72573;SDS011;60603;52.548;13.420;2023-03-21T06:43:32;31.05;;;15.18;;
72573;SDS011;60603;52.548;13.420;2023-03-21T06:45:57;31.02;;;15.60;;
72573;SDS011;60603;52.548;13.420;2023-03-21T06:48:24;32.05;;;16.20;;
72573;SDS011;60603;52.548;13.420;2023-03-21T06:50:51;35.88;;;15.32;;
72573;SDS011;60603;52.548;13.420;2023-03-21T06:53:17;33.67;;;15.60;;
72573;SDS011;60603;52.548;13.420;2023-03-21T06:55:47;30.95;;;15.10;;
72573;SDS011;60603;52.548;13.420;2023-03-21T06:58:14;32.97;;;16.25;;
72573;SDS011;60603;52.548;13.420;2023-03-21T07:00:40;37.40;;;16.77;;
72573;SDS011;60603;52.548;13.420;2023-03-21T07:03:06;32.03;;;15.25;;
72573;SDS011;60603;52.548;13.420;2023-03-21T07:05:33;33.15;;;15.73;;
72573;SDS011;60603;52.548;13.420;2023-03-21T07:08:00;33.45;;;15.30;;
72573;SDS011;60603;52.548;13.420;2023-03-21T07:10:26;33.38;;;15.15;;
72573;SDS011;60603;52.548;13.420;2023-03-21T07:12:51;32.13;;;15.32;;
72573;SDS011;60603;52.548;13.420;2023-03-21T07:15:17;37.20;;;15.23;;
72573;SDS011;60603;52.548;13.420;2023-03-21T07:17:43;82.82;;;38.28;;
72573;SDS011;60603;52.548;13.420;2023-03-21T07:20:09;35.47;;;16.75;;
72573;SDS011;60603;52.548;13.420;2023-03-21T07:22:37;37.17;;;17.67;;
72573;SDS011;60603;52.548;13.420;2023-03-21T07:25:03;32.63;;;16.23;;
72573;SDS011;60603;52.548;13.420;2023-03-21T07:27:29;30.17;;;15.13;;
72573;SDS011;60603;52.548;13.420;2023-03-21T07:29:55;33.35;;;16.63;;
72573;SDS011;60603;52.548;13.420;2023-03-21T07:32:21;31.90;;;16.13;;
72573;SDS011;60603;52.548;13.420;2023-03-21T07:34:47;38.10;;;17.30;;
72573;SDS011;60603;52.548;13.420;2023-03-21T07:37:13;31.25;;;15.13;;
72573;SDS011;60603;52.548;13.420;2023-03-21T07:39:38;32.47;;;16.17;;
72573;SDS011;60603;52.548;13.420;2023-03-21T07:42:04;37.67;;;18.83;;
72573;SDS011;60603;52.548;13.420;2023-03-21T07:44:30;36.35;;;17.58;;
72573;SDS011;60603;52.548;13.420;2023-03-21T07:46:57;37.88;;;17.17;;
72573;SDS011;60603;52.548;13.420;2023-03-21T07:49:23;40.92;;;19.55;;
72573;SDS011;60603;52.548;13.420;2023-03-21T07:51:49;35.58;;;17.17;;
72573;SDS011;60603;52.548;13.420;2023-03-21T07:54:15;39.00;;;18.60;;
72573;SDS011;60603;52.548;13.420;2023-03-21T07:56:43;41.28;;;19.88;;
72573;SDS011;60603;52.548;13.420;2023-03-21T07:59:09;38.92;;;18.83;;
72573;SDS011;60603;52.548;13.420;2023-03-21T08:01:35;36.05;;;17.92;;
72573;SDS011;60603;52.548;13.420;2023-03-21T08:04:01;37.17;;;17.42;;
72573;SDS011;60603;52.548;13.420;2023-03-21T08:06:27;37.08;;;18.02;;
72573;SDS011;60603;52.548;13.420;2023-03-21T08:08:53;40.38;;;17.45;;
72573;SDS011;60603;52.548;13.420;2023-03-21T08:11:19;35.03;;;17.13;;
72573;SDS011;60603;52.548;13.420;2023-03-21T08:13:46;35.28;;;17.48;;
72573;SDS011;60603;52.548;13.420;2023-03-21T08:16:12;36.13;;;17.27;;
72573;SDS011;60603;52.548;13.420;2023-03-21T08:18:37;34.58;;;17.23;;
72573;SDS011;60603;52.548;13.420;2023-03-21T08:21:03;39.65;;;18.08;;
72573;SDS011;60603;52.548;13.420;2023-03-21T08:23:29;37.20;;;17.35;;
72573;SDS011;60603;52.548;13.420;2023-03-21T08:25:55;33.42;;;15.98;;
72573;SDS011;60603;52.548;13.420;2023-03-21T08:28:21;38.45;;;18.00;;
72573;SDS011;60603;52.548;13.420;2023-03-21T08:30:48;35.88;;;17.58;;
72573;SDS011;60603;52.548;13.420;2023-03-21T08:33:14;36.35;;;18.50;;
72573;SDS011;60603;52.548;13.420;2023-03-21T08:35:41;38.50;;;18.05;;
72573;SDS011;60603;52.548;13.420;2023-03-21T08:38:06;39.50;;;16.92;;
72573;SDS011;60603;52.548;13.420;2023-03-21T08:40:32;32.50;;;15.07;;
72573;SDS011;60603;52.548;13.420;2023-03-21T08:42:58;34.63;;;16.77;;
72573;SDS011;60603;52.548;13.420;2023-03-21T08:45:24;37.28;;;17.48;;
72573;SDS011;60603;52.548;13.420;2023-03-21T08:47:51;35.92;;;17.95;;
72573;SDS011;60603;52.548;13.420;2023-03-21T08:50:19;38.63;;;16.52;;
72573;SDS011;60603;52.548;13.420;2023-03-21T08:52:46;35.00;;;17.70;;
72573;SDS011;60603;52.548;13.420;2023-03-21T08:55:12;38.47;;;17.63;;
72573;SDS011;60603;52.548;13.420;2023-03-21T08:57:38;35.05;;;15.93;;
72573;SDS011;60603;52.548;13.420;2023-03-21T09:00:05;38.05;;;16.65;;
72573;SDS011;60603;52.548;13.420;2023-03-21T09:02:37;37.50;;;17.10;;
72573;SDS011;60603;52.548;13.420;2023-03-21T09:05:03;33.80;;;16.95;;
72573;SDS011;60603;52.548;13.420;2023-03-21T09:07:30;34.65;;;14.90;;
72573;SDS011;60603;52.548;13.420;2023-03-21T09:09:58;32.78;;;14.88;;
72573;SDS011;60603;52.548;13.420;2023-03-21T09:12:24;29.45;;;14.60;;
72573;SDS011;60603;52.548;13.420;2023-03-21T09:14:50;30.05;;;14.43;;
72573;SDS011;60603;52.548;13.420;2023-03-21T09:17:17;32.72;;;14.55;;
72573;SDS011;60603;52.548;13.420;2023-03-21T09:19:43;28.85;;;15.07;;
72573;SDS011;60603;52.548;13.420;2023-03-21T09:22:11;28.05;;;13.80;;
72573;SDS011;60603;52.548;13.420;2023-03-21T09:24:39;29.08;;;14.15;;
72573;SDS011;60603;52.548;13.420;2023-03-21T09:27:06;27.98;;;13.65;;
72573;SDS011;60603;52.548;13.420;2023-03-21T09:29:32;29.00;;;14.55;;
72573;SDS011;60603;52.548;13.420;2023-03-21T09:31:58;24.33;;;13.32;;
72573;SDS011;60603;52.548;13.420;2023-03-21T09:34:25;27.98;;;14.25;;
72573;SDS011;60603;52.548;13.420;2023-03-21T09:36:50;28.13;;;13.35;;
72573;SDS011;60603;52.548;13.420;2023-03-21T09:39:19;24.35;;;12.57;;
72573;SDS011;60603;52.548;13.420;2023-03-21T09:47:02;29.83;;;14.52;;
72573;SDS011;60603;52.548;13.420;2023-03-21T09:49:33;29.73;;;13.73;;
72573;SDS011;60603;52.548;13.420;2023-03-21T09:52:05;26.27;;;13.52;;
72573;SDS011;60603;52.548;13.420;2023-03-21T09:54:38;29.17;;;13.20;;
72573;SDS011;60603;52.548;13.420;2023-03-21T10:00:03;24.08;;;12.95;;
72573;SDS011;60603;52.548;13.420;2023-03-21T10:02:41;26.98;;;12.60;;
72573;SDS011;60603;52.548;13.420;2023-03-21T10:05:16;32.42;;;16.27;;
72573;SDS011;60603;52.548;13.420;2023-03-21T10:10:42;26.50;;;12.65;;
72573;SDS011;60603;52.548;13.420;2023-03-21T10:13:12;26.17;;;12.57;;
72573;SDS011;60603;52.548;13.420;2023-03-21T10:15:45;25.08;;;12.20;;
72573;SDS011;60603;52.548;13.420;2023-03-21T10:18:12;24.40;;;12.15;;
72573;SDS011;60603;52.548;13.420;2023-03-21T10:20:43;26.80;;;12.18;;
72573;SDS011;60603;52.548;13.420;2023-03-21T10:23:14;25.65;;;11.80;;
72573;SDS011;60603;52.548;13.420;2023-03-21T10:25:41;25.95;;;11.85;;
72573;SDS011;60603;52.548;13.420;2023-03-21T10:28:17;26.95;;;12.05;;
72573;SDS011;60603;52.548;13.420;2023-03-21T10:30:46;22.52;;;11.85;;
72573;SDS011;60603;52.548;13.420;2023-03-21T10:33:58;21.30;;;11.40;;
72573;SDS011;60603;52.548;13.420;2023-03-21T10:36:08;26.02;;;12.40;;
72573;SDS011;60603;52.548;13.420;2023-03-21T10:38:44;26.25;;;11.77;;
72573;SDS011;60603;52.548;13.420;2023-03-21T10:41:12;26.45;;;12.50;;
72573;SDS011;60603;52.548;13.420;2023-03-21T10:43:39;21.80;;;11.07;;
72573;SDS011;60603;52.548;13.420;2023-03-21T10:46:12;25.20;;;12.02;;
72573;SDS011;60603;52.548;13.420;2023-03-21T10:48:43;26.95;;;11.70;;
72573;SDS011;60603;52.548;13.420;2023-03-21T10:51:20;23.10;;;11.45;;
72573;SDS011;60603;52.548;13.420;2023-03-21T10:53:57;27.58;;;13.65;;
72573;SDS011;60603;52.548;13.420;2023-03-21T10:56:28;21.83;;;11.05;;
72573;SDS011;60603;52.548;13.420;2023-03-21T10:58:56;22.45;;;11.40;;
72573;SDS011;60603;52.548;13.420;2023-03-21T11:01:25;23.85;;;12.00;;
72573;SDS011;60603;52.548;13.420;2023-03-21T11:04:18;22.58;;;11.07;;
72573;SDS011;60603;52.548;13.420;2023-03-21T11:06:53;22.25;;;11.20;;
72573;SDS011;60603;52.548;13.420;2023-03-21T11:09:24;23.88;;;12.10;;
72573;SDS011;60603;52.548;13.420;2023-03-21T11:12:03;26.95;;;13.25;;
72573;SDS011;60603;52.548;13.420;2023-03-21T11:14:37;21.50;;;11.50;;
72573;SDS011;60603;52.548;13.420;2023-03-21T11:20:05;22.73;;;11.02;;
72573;SDS011;60603;52.548;13.420;2023-03-21T11:22:36;23.23;;;12.30;;
72573;SDS011;60603;52.548;13.420;2023-03-21T11:25:05;22.40;;;10.93;;
72573;SDS011;60603;52.548;13.420;2023-03-21T11:27:33;23.27;;;11.38;;
72573;SDS011;60603;52.548;13.420;2023-03-21T11:30:00;24.75;;;12.23;;
72573;SDS011;60603;52.548;13.420;2023-03-21T11:32:36;22.20;;;11.07;;
72573;SDS011;60603;52.548;13.420;2023-03-21T11:37:48;21.70;;;11.25;;
72573;SDS011;60603;52.548;13.420;2023-03-21T11:42:50;28.85;;;13.18;;
72573;SDS011;60603;52.548;13.420;2023-03-21T11:45:25;25.08;;;11.48;;
72573;SDS011;60603;52.548;13.420;2023-03-21T11:47:56;23.23;;;10.82;;
72573;SDS011;60603;52.548;13.420;2023-03-21T11:50:37;21.85;;;11.10;;
72573;SDS011;60603;52.548;13.420;2023-03-21T12:01:25;20.95;;;11.02;;
72573;SDS011;60603;52.548;13.420;2023-03-21T12:12:26;23.38;;;11.73;;
72573;SDS011;60603;52.548;13.420;2023-03-21T12:15:13;24.35;;;11.95;;
72573;SDS011;60603;52.548;13.420;2023-03-21T12:18:01;23.65;;;11.60;;
72573;SDS011;60603;52.548;13.420;2023-03-21T12:20:53;27.15;;;14.23;;
72573;SDS011;60603;52.548;13.420;2023-03-21T12:26:19;22.33;;;12.10;;
72573;SDS011;60603;52.548;13.420;2023-03-21T12:29:02;20.65;;;11.02;;
72573;SDS011;60603;52.548;13.420;2023-03-21T12:39:48;21.30;;;10.80;;
72573;SDS011;60603;52.548;13.420;2023-03-21T12:44:58;18.65;;;10.20;;
72573;SDS011;60603;52.548;13.420;2023-03-21T12:47:28;17.77;;;9.27;;
72573;SDS011;60603;52.548;13.420;2023-03-21T12:50:00;21.40;;;10.05;;
72573;SDS011;60603;52.548;13.420;2023-03-21T12:52:31;19.83;;;10.77;;
72573;SDS011;60603;52.548;13.420;2023-03-21T12:55:13;44.80;;;20.92;;
72573;SDS011;60603;52.548;13.420;2023-03-21T12:57:47;20.17;;;11.10;;
72573;SDS011;60603;52.548;13.420;2023-03-21T13:00:21;20.30;;;10.65;;
72573;SDS011;60603;52.548;13.420;2023-03-21T13:05:31;19.45;;;9.93;;
72573;SDS011;60603;52.548;13.420;2023-03-21T13:08:02;21.58;;;11.15;;
72573;SDS011;60603;52.548;13.420;2023-03-21T13:10:32;21.08;;;9.93;;
72573;SDS011;60603;52.548;13.420;2023-03-21T13:13:03;20.95;;;11.10;;
72573;SDS011;60603;52.548;13.420;2023-03-21T13:18:31;19.08;;;10.05;;
72573;SDS011;60603;52.548;13.420;2023-03-21T13:21:07;17.92;;;9.35;;
72573;SDS011;60603;52.548;13.420;2023-03-21T13:23:44;19.38;;;10.15;;
72573;SDS011;60603;52.548;13.420;2023-03-21T13:26:33;18.45;;;9.63;;
72573;SDS011;60603;52.548;13.420;2023-03-21T13:29:21;19.67;;;9.35;;
72573;SDS011;60603;52.548;13.420;2023-03-21T13:31:49;17.23;;;10.07;;
72573;SDS011;60603;52.548;13.420;2023-03-21T13:34:22;18.75;;;8.93;;
72573;SDS011;60603;52.548;13.420;2023-03-21T13:36:49;20.33;;;10.25;;
72573;SDS011;60603;52.548;13.420;2023-03-21T13:39:17;21.70;;;10.77;;
72573;SDS011;60603;52.548;13.420;2023-03-21T13:41:46;23.00;;;9.90;;
72573;SDS011;60603;52.548;13.420;2023-03-21T13:47:22;18.42;;;10.60;;
72573;SDS011;60603;52.548;13.420;2023-03-21T13:53:15;18.00;;;9.95;;
72573;SDS011;60603;52.548;13.420;2023-03-21T13:55:58;19.30;;;9.05;;
72573;SDS011;60603;52.548;13.420;2023-03-21T13:58:59;17.33;;;8.40;;
72573;SDS011;60603;52.548;13.420;2023-03-21T14:01:40;13.88;;;7.63;;
72573;SDS011;60603;52.548;13.420;2023-03-21T14:07:02;14.20;;;7.50;;
72573;SDS011;60603;52.548;13.420;2023-03-21T14:09:35;15.43;;;7.68;;
72573;SDS011;60603;52.548;13.420;2023-03-21T14:12:06;15.57;;;7.72;;
72573;SDS011;60603;52.548;13.420;2023-03-21T14:14:37;13.40;;;7.28;;
72573;SDS011;60603;52.548;13.420;2023-03-21T14:17:22;14.30;;;7.32;;
72573;SDS011;60603;52.548;13.420;2023-03-21T14:19:56;14.45;;;7.20;;
72573;SDS011;60603;52.548;13.420;2023-03-21T14:22:35;17.08;;;7.85;;
72573;SDS011;60603;52.548;13.420;2023-03-21T14:25:05;15.23;;;7.63;;
72573;SDS011;60603;52.548;13.420;2023-03-21T14:27:38;13.35;;;7.10;;
72573;SDS011;60603;52.548;13.420;2023-03-21T14:30:31;14.85;;;7.70;;
72573;SDS011;60603;52.548;13.420;2023-03-21T14:33:00;14.80;;;7.60;;
72573;SDS011;60603;52.548;13.420;2023-03-21T14:35:31;14.43;;;7.68;;
72573;SDS011;60603;52.548;13.420;2023-03-21T14:38:02;14.63;;;7.72;;
72573;SDS011;60603;52.548;13.420;2023-03-21T14:40:29;14.15;;;7.80;;
72573;SDS011;60603;52.548;13.420;2023-03-21T14:42:55;14.48;;;7.60;;
72573;SDS011;60603;52.548;13.420;2023-03-21T14:45:22;14.10;;;7.30;;
72573;SDS011;60603;52.548;13.420;2023-03-21T14:48:14;18.42;;;9.50;;
72573;SDS011;60603;52.548;13.420;2023-03-21T14:50:56;12.32;;;7.80;;
72573;SDS011;60603;52.548;13.420;2023-03-21T14:53:27;13.73;;;7.32;;
72573;SDS011;60603;52.548;13.420;2023-03-21T14:58:26;14.13;;;8.30;;
72573;SDS011;60603;52.548;13.420;2023-03-21T15:00:54;12.85;;;6.97;;
72573;SDS011;60603;52.548;13.420;2023-03-21T15:03:23;15.25;;;7.28;;
72573;SDS011;60603;52.548;13.420;2023-03-21T15:05:51;11.75;;;6.95;;
72573;SDS011;60603;52.548;13.420;2023-03-21T15:08:18;12.50;;;7.47;;
72573;SDS011;60603;52.548;13.420;2023-03-21T15:10:58;14.13;;;7.28;;
72573;SDS011;60603;52.548;13.420;2023-03-21T15:13:30;14.23;;;7.18;;
72573;SDS011;60603;52.548;13.420;2023-03-21T15:16:01;11.80;;;6.97;;
72573;SDS011;60603;52.548;13.420;2023-03-21T15:18:28;13.55;;;7.20;;
72573;SDS011;60603;52.548;13.420;2023-03-21T15:20:57;13.30;;;7.28;;
72573;SDS011;60603;52.548;13.420;2023-03-21T15:25:54;13.23;;;7.20;;
72573;SDS011;60603;52.548;13.420;2023-03-21T15:28:20;14.63;;;6.85;;
72573;SDS011;60603;52.548;13.420;2023-03-21T15:30:47;12.18;;;7.80;;
72573;SDS011;60603;52.548;13.420;2023-03-21T15:33:15;13.43;;;7.13;;
72573;SDS011;60603;52.548;13.420;2023-03-21T15:35:42;13.02;;;7.47;;
72573;SDS011;60603;52.548;13.420;2023-03-21T15:38:30;15.80;;;8.60;;
72573;SDS011;60603;52.548;13.420;2023-03-21T15:43:46;15.15;;;7.82;;
72573;SDS011;60603;52.548;13.420;2023-03-21T15:46:15;12.60;;;6.60;;
72573;SDS011;60603;52.548;13.420;2023-03-21T15:48:42;16.55;;;9.13;;
72573;SDS011;60603;52.548;13.420;2023-03-21T15:51:19;11.50;;;7.03;;
72573;SDS011;60603;52.548;13.420;2023-03-21T15:53:46;13.18;;;7.30;;
72573;SDS011;60603;52.548;13.420;2023-03-21T15:56:12;13.40;;;7.13;;
72573;SDS011;60603;52.548;13.420;2023-03-21T15:58:43;11.73;;;6.55;;
72573;SDS011;60603;52.548;13.420;2023-03-21T16:01:13;12.95;;;6.75;;
72573;SDS011;60603;52.548;13.420;2023-03-21T16:03:42;13.43;;;7.07;;
72573;SDS011;60603;52.548;13.420;2023-03-21T16:06:22;13.07;;;7.75;;
72573;SDS011;60603;52.548;13.420;2023-03-21T16:14:05;12.40;;;7.13;;
72573;SDS011;60603;52.548;13.420;2023-03-21T16:16:31;13.45;;;6.90;;
72573;SDS011;60603;52.548;13.420;2023-03-21T16:18:58;15.32;;;6.97;;
72573;SDS011;60603;52.548;13.420;2023-03-21T16:21:25;11.90;;;7.30;;
72573;SDS011;60603;52.548;13.420;2023-03-21T16:23:53;11.80;;;6.97;;
72573;SDS011;60603;52.548;13.420;2023-03-21T16:26:24;12.02;;;7.03;;